createdAt,value
2018-12-08T00:00:49.014Z,941.21
2018-12-08T00:01:48.998Z,941.37
2018-12-08T00:02:48.985Z,941.52
2018-12-08T00:03:48.970Z,941.63
2018-12-08T00:04:48.957Z,941.74
2018-12-08T00:05:48.942Z,941.94
2018-12-08T00:06:48.930Z,941.49
2018-12-08T00:07:48.923Z,941.72
2018-12-08T00:08:48.902Z,941.68
2018-12-08T00:09:48.887Z,941.89
2018-12-08T00:10:48.874Z,941.95
2018-12-08T00:11:48.861Z,942.13
2018-12-08T00:12:48.844Z,942.16
2018-12-08T00:13:48.831Z,942.22
2018-12-08T00:14:48.816Z,942.23
2018-12-08T00:15:48.802Z,942.29
2018-12-08T00:16:48.787Z,942.36
2018-12-08T00:17:48.771Z,942.31
2018-12-08T00:18:48.757Z,942.41
2018-12-08T00:19:48.744Z,942.46
2018-12-08T00:20:48.727Z,942.56
2018-12-08T00:21:48.714Z,942.54
2018-12-08T00:22:48.699Z,942.63
2018-12-08T00:23:48.684Z,942.59
2018-12-08T00:24:48.668Z,942.62
2018-12-08T00:25:48.655Z,942.66
2018-12-08T00:26:48.639Z,942.7
2018-12-08T00:27:48.625Z,942.73
2018-12-08T00:28:48.607Z,942.74
2018-12-08T00:29:48.593Z,942.71
2018-12-08T00:30:48.580Z,942.69
2018-12-08T00:31:48.563Z,942.74
2018-12-08T00:32:48.548Z,942.85
2018-12-08T00:33:48.532Z,942.85
2018-12-08T00:34:48.515Z,942.85
2018-12-08T00:35:48.499Z,942.85
2018-12-08T00:36:48.489Z,942.76
2018-12-08T00:37:48.469Z,942.76
2018-12-08T00:38:48.453Z,942.76
2018-12-08T00:39:48.438Z,942.8
2018-12-08T00:40:48.424Z,942.78
2018-12-08T00:41:48.407Z,942.67
2018-12-08T00:42:48.391Z,942.68
2018-12-08T00:43:48.377Z,942.66
2018-12-08T00:44:48.360Z,942.68
2018-12-08T00:45:48.344Z,942.7
2018-12-08T00:46:48.329Z,942.64
2018-12-08T00:47:48.315Z,942.67
2018-12-08T00:48:48.298Z,942.65
2018-12-08T00:49:48.281Z,942.71
2018-12-08T00:50:48.264Z,942.59
2018-12-08T00:51:48.499Z,942.63
2018-12-08T00:52:48.234Z,942.63
2018-12-08T00:53:48.216Z,942.59
2018-12-08T00:54:48.201Z,942.47
2018-12-08T00:55:48.186Z,942.52
2018-12-08T00:56:48.271Z,942.45
2018-12-08T00:57:48.153Z,942.41
2018-12-08T00:58:48.137Z,942.38
2018-12-08T00:59:48.123Z,942.38
2018-12-08T01:00:48.105Z,942.48
2018-12-08T01:01:48.092Z,942.53
2018-12-08T01:02:48.074Z,942.45
2018-12-08T01:03:48.059Z,942.5
2018-12-08T01:04:48.047Z,942.5
2018-12-08T01:05:48.026Z,942.58
2018-12-08T01:06:48.010Z,942.52
2018-12-08T01:07:47.992Z,942.5
2018-12-08T01:08:47.980Z,942.61
2018-12-08T01:09:47.962Z,942.52
2018-12-08T01:10:47.946Z,942.55
2018-12-08T01:11:47.929Z,942.58
2018-12-08T01:12:47.914Z,942.58
2018-12-08T01:13:47.897Z,942.59
2018-12-08T01:14:47.886Z,942.59
2018-12-08T01:15:47.866Z,942.55
2018-12-08T01:16:47.849Z,942.6
2018-12-08T01:17:47.833Z,942.59
2018-12-08T01:18:47.816Z,942.57
2018-12-08T01:19:47.800Z,942.62
2018-12-08T01:20:47.788Z,942.6
2018-12-08T01:21:47.769Z,942.71
2018-12-08T01:22:47.753Z,942.73
2018-12-08T01:23:47.736Z,942.75
2018-12-08T01:24:47.721Z,942.89
2018-12-08T01:25:47.705Z,942.81
2018-12-08T01:26:47.689Z,942.84
2018-12-08T01:27:47.673Z,942.81
2018-12-08T01:28:47.658Z,942.84
2018-12-08T01:29:47.642Z,942.85
2018-12-08T01:30:47.625Z,942.85
2018-12-08T01:31:47.609Z,942.88
2018-12-08T01:32:47.593Z,942.81
2018-12-08T01:33:47.578Z,942.85
2018-12-08T01:34:47.561Z,942.89
2018-12-08T01:35:47.551Z,942.89
2018-12-08T01:36:47.535Z,942.93
2018-12-08T01:37:47.517Z,942.88
2018-12-08T01:38:47.500Z,942.92
2018-12-08T01:39:47.485Z,942.92
2018-12-08T01:40:47.469Z,942.99
2018-12-08T01:41:47.453Z,943.03
2018-12-08T01:42:47.438Z,942.97
2018-12-08T01:43:47.422Z,942.97
2018-12-08T01:44:47.405Z,943.02
2018-12-08T01:45:47.390Z,943.02
2018-12-08T01:46:47.374Z,943.06
2018-12-08T01:47:47.358Z,943.06
2018-12-08T01:48:47.342Z,943.09
2018-12-08T01:49:47.326Z,943.15
2018-12-08T01:50:47.310Z,943.2
2018-12-08T01:51:47.294Z,943.2
2018-12-08T01:52:47.278Z,943.27
2018-12-08T01:53:47.264Z,943.27
2018-12-08T01:54:47.248Z,943.29
2018-12-08T01:55:47.231Z,943.18
2018-12-08T01:56:47.215Z,943.2
2018-12-08T01:57:47.199Z,943.16
2018-12-08T01:58:47.184Z,943.14
2018-12-08T01:59:47.168Z,943.12
2018-12-08T02:00:47.152Z,943.12
2018-12-08T02:01:47.138Z,943.03
2018-12-08T02:02:47.126Z,943.04
2018-12-08T02:03:47.106Z,942.99
2018-12-08T02:04:47.089Z,943.05
2018-12-08T02:05:47.075Z,943.05
2018-12-08T02:06:47.058Z,943
2018-12-08T02:07:47.042Z,942.99
2018-12-08T02:08:47.028Z,942.99
2018-12-08T02:09:47.011Z,942.94
2018-12-08T02:10:46.995Z,942.95
2018-12-08T02:11:46.980Z,942.91
2018-12-08T02:12:47.264Z,942.88
2018-12-08T02:13:46.949Z,942.9
2018-12-08T02:14:46.932Z,942.82
2018-12-08T02:15:46.916Z,942.82
2018-12-08T02:16:46.901Z,942.79
2018-12-08T02:17:46.883Z,942.7
2018-12-08T02:18:46.868Z,942.73
2018-12-08T02:19:46.853Z,942.7
2018-12-08T02:20:46.837Z,942.63
2018-12-08T02:21:46.835Z,942.58
2018-12-08T02:22:46.805Z,942.61
2018-12-08T02:23:46.789Z,942.55
2018-12-08T02:24:46.776Z,942.54
2018-12-08T02:25:46.757Z,942.68
2018-12-08T02:26:46.741Z,942.64
2018-12-08T02:27:46.727Z,942.71
2018-12-08T02:28:46.708Z,942.75
2018-12-08T02:29:46.694Z,942.84
2018-12-08T02:30:46.677Z,943.01
2018-12-08T02:31:46.660Z,942.97
2018-12-08T02:32:46.645Z,943.02
2018-12-08T02:33:46.628Z,943.04
2018-12-08T02:34:46.620Z,943.13
2018-12-08T02:35:46.598Z,943.12
2018-12-08T02:36:46.580Z,943.15
2018-12-08T02:37:46.564Z,943.17
2018-12-08T02:38:46.549Z,943.16
2018-12-08T02:39:46.534Z,943.22
2018-12-08T02:40:46.516Z,943.21
2018-12-08T02:41:46.501Z,943.25
2018-12-08T02:42:46.485Z,943.25
2018-12-08T02:43:46.468Z,943.32
2018-12-08T02:44:46.452Z,943.32
2018-12-08T02:45:46.436Z,943.28
2018-12-08T02:46:46.421Z,943.32
2018-12-08T02:47:46.403Z,943.31
2018-12-08T02:48:46.388Z,943.41
2018-12-08T02:49:46.376Z,943.38
2018-12-08T02:50:46.356Z,943.44
2018-12-08T02:51:46.342Z,943.47
2018-12-08T02:52:46.324Z,943.44
2018-12-08T02:53:46.307Z,943.53
2018-12-08T02:54:46.291Z,943.51
2018-12-08T02:55:46.275Z,943.46
2018-12-08T02:56:46.260Z,943.49
2018-12-08T02:57:46.243Z,943.51
2018-12-08T02:58:46.227Z,943.51
2018-12-08T02:59:46.211Z,943.56
2018-12-08T03:00:46.195Z,943.58
2018-12-08T03:01:46.181Z,943.64
2018-12-08T03:02:46.165Z,943.66
2018-12-08T03:03:46.150Z,943.74
2018-12-08T03:04:46.131Z,943.77
2018-12-08T03:05:46.116Z,943.78
2018-12-08T03:06:46.100Z,943.81
2018-12-08T03:07:46.088Z,943.87
2018-12-08T03:08:46.068Z,943.87
2018-12-08T03:09:46.053Z,943.83
2018-12-08T03:10:46.035Z,943.89
2018-12-08T03:11:46.019Z,943.94
2018-12-08T03:12:46.005Z,943.92
2018-12-08T03:13:45.990Z,943.93
2018-12-08T03:14:45.973Z,944.03
2018-12-08T03:15:45.956Z,944.19
2018-12-08T03:16:45.943Z,944.2
2018-12-08T03:17:45.924Z,944.26
2018-12-08T03:18:45.910Z,944.28
2018-12-08T03:19:45.894Z,944.33
2018-12-08T03:20:45.878Z,944.4
2018-12-08T03:21:45.862Z,944.4
2018-12-08T03:22:45.846Z,944.5
2018-12-08T03:23:45.830Z,944.5
2018-12-08T03:24:45.813Z,944.6
2018-12-08T03:25:45.798Z,944.61
2018-12-08T03:26:45.781Z,944.56
2018-12-08T03:27:45.765Z,944.65
2018-12-08T03:28:45.752Z,944.68
2018-12-08T03:29:45.734Z,944.66
2018-12-08T03:30:45.736Z,944.72
2018-12-08T03:31:45.704Z,944.69
2018-12-08T03:32:45.687Z,944.72
2018-12-08T03:33:45.670Z,944.73
2018-12-08T03:34:45.654Z,944.75
2018-12-08T03:35:45.639Z,944.73
2018-12-08T03:36:45.623Z,944.81
2018-12-08T03:37:45.617Z,944.82
2018-12-08T03:38:45.591Z,944.47
2018-12-08T03:39:45.576Z,944.76
2018-12-08T03:40:45.597Z,944.65
2018-12-08T03:41:45.543Z,944.5
2018-12-08T03:42:45.528Z,944.67
2018-12-08T03:43:45.513Z,944.72
2018-12-08T03:44:45.496Z,944.7
2018-12-08T03:45:45.480Z,944.73
2018-12-08T03:46:45.465Z,944.73
2018-12-08T03:47:45.451Z,944.9
2018-12-08T03:48:45.432Z,944.9
2018-12-08T03:49:45.417Z,944.89
2018-12-08T03:50:45.403Z,944.9
2018-12-08T03:51:45.386Z,944.84
2018-12-08T03:52:45.370Z,944.93
2018-12-08T03:53:45.356Z,945.03
2018-12-08T03:54:45.339Z,945.03
2018-12-08T03:55:45.322Z,944.95
2018-12-08T03:56:45.306Z,945.03
2018-12-08T03:57:45.292Z,944.98
2018-12-08T03:58:45.275Z,944.99
2018-12-08T03:59:45.259Z,944.95
2018-12-08T04:00:45.243Z,945.08
2018-12-08T04:01:45.227Z,945.06
2018-12-08T04:02:45.213Z,945.07
2018-12-08T04:03:45.199Z,945.06
2018-12-08T04:04:45.180Z,945.1
2018-12-08T04:05:45.164Z,945.14
2018-12-08T04:06:45.148Z,945.15
2018-12-08T04:07:45.131Z,945.09
2018-12-08T04:08:45.115Z,945.22
2018-12-08T04:09:45.100Z,945.11
2018-12-08T04:10:45.085Z,945.16
2018-12-08T04:11:45.069Z,945.14
2018-12-08T04:12:45.052Z,945.04
2018-12-08T04:13:45.036Z,945.08
2018-12-08T04:14:45.042Z,945.07
2018-12-08T04:15:45.004Z,945.01
2018-12-08T04:16:45.045Z,945.12
2018-12-08T04:17:44.971Z,945.08
2018-12-08T04:18:44.956Z,945.1
2018-12-08T04:19:44.941Z,944.98
2018-12-08T04:20:44.924Z,945
2018-12-08T04:21:44.908Z,945.06
2018-12-08T04:22:44.895Z,945.07
2018-12-08T04:23:44.875Z,945.04
2018-12-08T04:24:44.861Z,945.01
2018-12-08T04:25:44.894Z,945.04
2018-12-08T04:26:44.828Z,945.05
2018-12-08T04:27:44.812Z,945.08
2018-12-08T04:28:44.795Z,945
2018-12-08T04:29:44.779Z,945.07
2018-12-08T04:30:44.763Z,945.06
2018-12-08T04:31:44.755Z,945.1
2018-12-08T04:32:44.738Z,945.05
2018-12-08T04:33:44.716Z,945.06
2018-12-08T04:34:44.699Z,944.99
2018-12-08T04:35:44.687Z,944.84
2018-12-08T04:36:44.668Z,944.88
2018-12-08T04:37:44.652Z,944.85
2018-12-08T04:38:44.636Z,944.87
2018-12-08T04:39:44.620Z,944.84
2018-12-08T04:40:44.604Z,944.88
2018-12-08T04:41:44.589Z,944.87
2018-12-08T04:42:44.573Z,944.88
2018-12-08T04:43:44.556Z,944.87
2018-12-08T04:44:44.539Z,944.89
2018-12-08T04:45:44.523Z,944.92
2018-12-08T04:46:44.507Z,944.93
2018-12-08T04:47:44.491Z,944.91
2018-12-08T04:48:44.474Z,944.85
2018-12-08T04:49:44.458Z,944.96
2018-12-08T04:50:44.441Z,945.01
2018-12-08T04:51:44.425Z,944.95
2018-12-08T04:52:44.452Z,944.92
2018-12-08T04:53:44.396Z,944.94
2018-12-08T04:54:44.376Z,944.97
2018-12-08T04:55:44.360Z,945.01
2018-12-08T04:56:44.344Z,944.94
2018-12-08T04:57:44.327Z,944.97
2018-12-08T04:58:44.311Z,944.99
2018-12-08T04:59:44.296Z,945.05
2018-12-08T05:00:44.279Z,944.95
2018-12-08T05:01:44.262Z,945.01
2018-12-08T05:02:44.253Z,945.01
2018-12-08T05:03:44.233Z,945.03
2018-12-08T05:04:44.213Z,945.05
2018-12-08T05:05:44.197Z,945.05
2018-12-08T05:06:44.181Z,944.99
2018-12-08T05:07:44.164Z,944.93
2018-12-08T05:08:44.147Z,945.05
2018-12-08T05:09:44.131Z,945.04
2018-12-08T05:10:44.115Z,944.98
2018-12-08T05:11:44.099Z,945.02
2018-12-08T05:12:44.082Z,945.06
2018-12-08T05:13:44.066Z,944.99
2018-12-08T05:14:44.050Z,945.07
2018-12-08T05:15:44.034Z,945.03
2018-12-08T05:16:44.017Z,945.09
2018-12-08T05:17:44.000Z,945.16
2018-12-08T05:18:43.984Z,945.09
2018-12-08T05:19:43.968Z,945.16
2018-12-08T05:20:43.952Z,945.08
2018-12-08T05:21:43.935Z,945.11
2018-12-08T05:22:43.919Z,945.07
2018-12-08T05:23:43.903Z,945.05
2018-12-08T05:24:43.886Z,944.98
2018-12-08T05:25:43.870Z,944.89
2018-12-08T05:26:43.890Z,945.07
2018-12-08T05:27:43.836Z,944.98
2018-12-08T05:28:43.821Z,944.99
2018-12-08T05:29:43.805Z,945.08
2018-12-08T05:30:43.787Z,945.09
2018-12-08T05:31:43.772Z,944.98
2018-12-08T05:32:43.756Z,945.13
2018-12-08T05:33:43.796Z,945.16
2018-12-08T05:34:43.723Z,945.12
2018-12-08T05:35:43.706Z,945.12
2018-12-08T05:36:43.690Z,945.14
2018-12-08T05:37:43.674Z,945.22
2018-12-08T05:38:43.657Z,945.14
2018-12-08T05:39:43.645Z,945.18
2018-12-08T05:40:43.624Z,945.19
2018-12-08T05:41:43.612Z,945.19
2018-12-08T05:42:43.591Z,945.08
2018-12-08T05:43:43.575Z,945.15
2018-12-08T05:44:43.559Z,945.19
2018-12-08T05:45:43.542Z,945.15
2018-12-08T05:46:43.525Z,945.16
2018-12-08T05:47:43.510Z,945.19
2018-12-08T05:48:43.558Z,945
2018-12-08T05:49:43.476Z,945.09
2018-12-08T05:50:43.461Z,945.18
2018-12-08T05:51:43.444Z,945.09
2018-12-08T05:52:43.429Z,945.16
2018-12-08T05:53:43.411Z,945.28
2018-12-08T05:54:43.395Z,945.16
2018-12-08T05:55:43.379Z,945.18
2018-12-08T05:56:43.361Z,945.24
2018-12-08T05:57:43.346Z,945.24
2018-12-08T05:58:43.329Z,945.22
2018-12-08T05:59:43.314Z,945.21
2018-12-08T06:00:43.296Z,945.39
2018-12-08T06:01:43.280Z,945.27
2018-12-08T06:02:43.264Z,945.27
2018-12-08T06:03:43.247Z,945.16
2018-12-08T06:04:43.230Z,945.18
2018-12-08T06:05:43.214Z,945.21
2018-12-08T06:06:43.197Z,945.2
2018-12-08T06:07:43.181Z,945.19
2018-12-08T06:08:43.165Z,945.15
2018-12-08T06:09:43.149Z,945.19
2018-12-08T06:10:43.132Z,945.29
2018-12-08T06:11:43.116Z,945.36
2018-12-08T06:12:43.100Z,945.18
2018-12-08T06:13:43.083Z,945.14
2018-12-08T06:14:43.067Z,945.15
2018-12-08T06:15:43.050Z,945.29
2018-12-08T06:16:43.033Z,945.15
2018-12-08T06:17:43.017Z,945.16
2018-12-08T06:18:42.999Z,945.12
2018-12-08T06:19:42.983Z,945.16
2018-12-08T06:20:42.967Z,945.23
2018-12-08T06:21:42.949Z,945.16
2018-12-08T06:22:42.933Z,945.13
2018-12-08T06:23:42.917Z,945.2
2018-12-08T06:24:42.901Z,945.11
2018-12-08T06:25:42.883Z,945.07
2018-12-08T06:26:42.866Z,945.08
2018-12-08T06:27:42.851Z,945.17
2018-12-08T06:28:42.833Z,945.19
2018-12-08T06:29:42.816Z,945.16
2018-12-08T06:30:42.799Z,945.25
2018-12-08T06:31:42.783Z,945.15
2018-12-08T06:32:42.793Z,945.21
2018-12-08T06:33:42.749Z,945.15
2018-12-08T06:34:42.733Z,945.16
2018-12-08T06:35:42.716Z,945.08
2018-12-08T06:36:42.698Z,945.07
2018-12-08T06:37:42.683Z,945.02
2018-12-08T06:38:42.668Z,945.12
2018-12-08T06:39:42.649Z,945.02
2018-12-08T06:40:42.631Z,945.01
2018-12-08T06:41:42.614Z,945.04
2018-12-08T06:42:42.598Z,944.96
2018-12-08T06:43:42.581Z,944.95
2018-12-08T06:44:42.569Z,944.94
2018-12-08T06:45:42.556Z,944.92
2018-12-08T06:46:42.533Z,945
2018-12-08T06:47:42.514Z,944.97
2018-12-08T06:48:42.496Z,944.97
2018-12-08T06:49:42.481Z,945.01
2018-12-08T06:50:42.465Z,944.94
2018-12-08T06:51:42.449Z,944.98
2018-12-08T06:52:42.432Z,945.01
2018-12-08T06:53:42.420Z,944.98
2018-12-08T06:54:42.404Z,944.99
2018-12-08T06:55:42.382Z,945.08
2018-12-08T06:56:42.369Z,945.05
2018-12-08T06:57:42.348Z,945.02
2018-12-08T06:58:42.331Z,945.03
2018-12-08T06:59:42.315Z,944.94
2018-12-08T07:00:42.298Z,945.07
2018-12-08T07:01:42.282Z,945.02
2018-12-08T07:02:42.266Z,945.11
2018-12-08T07:03:42.249Z,945.11
2018-12-08T07:04:42.235Z,945.12
2018-12-08T07:05:42.215Z,945.08
2018-12-08T07:06:42.199Z,945.13
2018-12-08T07:07:42.183Z,945.12
2018-12-08T07:08:42.166Z,945.06
2018-12-08T07:09:42.150Z,945.01
2018-12-08T07:10:42.133Z,945.03
2018-12-08T07:11:42.117Z,945.04
2018-12-08T07:12:42.101Z,945.06
2018-12-08T07:13:42.083Z,945.09
2018-12-08T07:14:42.067Z,945.12
2018-12-08T07:15:42.051Z,945.13
2018-12-08T07:16:42.034Z,945.14
2018-12-08T07:17:42.017Z,945.14
2018-12-08T07:18:42.004Z,945.15
2018-12-08T07:19:41.985Z,945.15
2018-12-08T07:20:41.968Z,945.16
2018-12-08T07:21:41.953Z,945.14
2018-12-08T07:22:41.936Z,945.2
2018-12-08T07:23:41.920Z,945.2
2018-12-08T07:24:41.903Z,945.21
2018-12-08T07:25:41.886Z,945.21
2018-12-08T07:26:41.869Z,945.26
2018-12-08T07:27:41.854Z,945.25
2018-12-08T07:28:41.836Z,945.31
2018-12-08T07:29:41.820Z,945.22
2018-12-08T07:30:41.804Z,945.29
2018-12-08T07:31:41.789Z,945.32
2018-12-08T07:32:41.771Z,945.32
2018-12-08T07:33:41.756Z,945.19
2018-12-08T07:34:41.738Z,945.3
2018-12-08T07:35:41.721Z,945.24
2018-12-08T07:36:41.705Z,945.18
2018-12-08T07:37:41.689Z,945.16
2018-12-08T07:38:41.672Z,945.3
2018-12-08T07:39:41.656Z,945.23
2018-12-08T07:40:41.639Z,945.23
2018-12-08T07:41:41.623Z,945.32
2018-12-08T07:42:41.607Z,945.27
2018-12-08T07:43:41.592Z,945.26
2018-12-08T07:44:41.575Z,945.36
2018-12-08T07:45:41.558Z,945.28
2018-12-08T07:46:41.542Z,945.22
2018-12-08T07:47:41.527Z,945.28
2018-12-08T07:48:41.512Z,945.23
2018-12-08T07:49:41.493Z,945.28
2018-12-08T07:50:41.479Z,945.29
2018-12-08T07:51:41.461Z,945.25
2018-12-08T07:52:41.445Z,945.31
2018-12-08T07:53:41.428Z,945.19
2018-12-08T07:54:41.412Z,945.2
2018-12-08T07:55:41.396Z,945.18
2018-12-08T07:56:41.379Z,945.26
2018-12-08T07:57:41.363Z,945.32
2018-12-08T07:58:41.347Z,945.19
2018-12-08T07:59:41.331Z,945.12
2018-12-08T08:00:41.314Z,945.12
2018-12-08T08:01:41.300Z,945.13
2018-12-08T08:02:41.286Z,945.11
2018-12-08T08:03:41.266Z,945.15
2018-12-08T08:04:41.250Z,945.14
2018-12-08T08:05:41.234Z,945.17
2018-12-08T08:06:41.218Z,945.15
2018-12-08T08:07:41.201Z,945.11
2018-12-08T08:08:41.185Z,945.1
2018-12-08T08:09:41.169Z,945.09
2018-12-08T08:10:41.154Z,945.08
2018-12-08T08:11:41.137Z,945.06
2018-12-08T08:12:41.121Z,945.12
2018-12-08T08:13:41.105Z,945.05
2018-12-08T08:14:41.090Z,945
2018-12-08T08:15:41.073Z,945.07
2018-12-08T08:16:41.057Z,945.02
2018-12-08T08:17:41.042Z,945.01
2018-12-08T08:18:41.026Z,944.98
2018-12-08T08:19:41.009Z,945.08
2018-12-08T08:20:40.993Z,944.94
2018-12-08T08:21:40.978Z,944.98
2018-12-08T08:22:40.961Z,944.9
2018-12-08T08:23:40.945Z,944.87
2018-12-08T08:24:40.930Z,944.86
2018-12-08T08:25:40.913Z,944.77
2018-12-08T08:26:40.897Z,944.86
2018-12-08T08:27:40.882Z,944.84
2018-12-08T08:28:40.865Z,944.85
2018-12-08T08:29:40.849Z,944.81
2018-12-08T08:30:40.833Z,944.78
2018-12-08T08:31:40.817Z,944.78
2018-12-08T08:32:40.802Z,944.81
2018-12-08T08:33:40.785Z,944.72
2018-12-08T08:34:40.770Z,944.83
2018-12-08T08:35:40.754Z,944.81
2018-12-08T08:36:40.738Z,944.86
2018-12-08T08:37:40.722Z,944.73
2018-12-08T08:38:40.706Z,944.86
2018-12-08T08:39:40.691Z,944.65
2018-12-08T08:40:40.673Z,944.6
2018-12-08T08:41:40.658Z,944.65
2018-12-08T08:42:40.642Z,944.67
2018-12-08T08:43:40.627Z,944.61
2018-12-08T08:44:40.681Z,944.67
2018-12-08T08:45:40.595Z,944.64
2018-12-08T08:46:40.581Z,944.67
2018-12-08T08:47:40.564Z,944.7
2018-12-08T08:48:40.547Z,944.72
2018-12-08T08:49:40.532Z,944.58
2018-12-08T08:50:40.517Z,944.69
2018-12-08T08:51:40.500Z,944.51
2018-12-08T08:52:40.484Z,944.61
2018-12-08T08:53:40.469Z,944.6
2018-12-08T08:54:40.453Z,944.6
2018-12-08T08:55:40.438Z,944.68
2018-12-08T08:56:40.422Z,944.63
2018-12-08T08:57:40.406Z,944.57
2018-12-08T08:58:40.391Z,944.66
2018-12-08T08:59:40.373Z,944.52
2018-12-08T09:00:40.359Z,944.63
2018-12-08T09:01:40.345Z,944.75
2018-12-08T09:02:40.329Z,944.7
2018-12-08T09:03:40.312Z,944.72
2018-12-08T09:04:40.296Z,944.73
2018-12-08T09:05:40.283Z,944.73
2018-12-08T09:06:40.264Z,944.86
2018-12-08T09:07:40.250Z,944.71
2018-12-08T09:08:40.234Z,944.71
2018-12-08T09:09:40.219Z,944.76
2018-12-08T09:10:40.202Z,944.73
2018-12-08T09:11:40.187Z,944.8
2018-12-08T09:12:40.172Z,944.67
2018-12-08T09:13:40.156Z,944.69
2018-12-08T09:14:40.140Z,944.69
2018-12-08T09:15:40.125Z,944.61
2018-12-08T09:16:40.110Z,944.63
2018-12-08T09:17:40.094Z,944.63
2018-12-08T09:18:40.079Z,944.78
2018-12-08T09:19:40.063Z,944.61
2018-12-08T09:20:40.048Z,944.67
2018-12-08T09:21:40.033Z,944.82
2018-12-08T09:22:40.022Z,944.59
2018-12-08T09:23:40.002Z,944.63
2018-12-08T09:24:39.986Z,944.65
2018-12-08T09:25:39.972Z,944.59
2018-12-08T09:26:39.956Z,944.58
2018-12-08T09:27:39.942Z,944.61
2018-12-08T09:28:39.924Z,944.63
2018-12-08T09:29:39.910Z,944.59
2018-12-08T09:30:39.894Z,944.64
2018-12-08T09:31:39.879Z,944.58
2018-12-08T09:32:39.863Z,944.5
2018-12-08T09:33:39.848Z,944.63
2018-12-08T09:34:39.832Z,944.51
2018-12-08T09:35:39.817Z,944.54
2018-12-08T09:36:39.801Z,944.47
2018-12-08T09:37:39.787Z,944.46
2018-12-08T09:38:39.772Z,944.56
2018-12-08T09:39:39.754Z,944.53
2018-12-08T09:40:39.740Z,944.54
2018-12-08T09:41:39.725Z,944.36
2018-12-08T09:42:39.709Z,944.41
2018-12-08T09:43:39.695Z,944.41
2018-12-08T09:44:39.679Z,944.48
2018-12-08T09:45:41.871Z,944.42
2018-12-08T09:46:39.647Z,944.47
2018-12-08T09:47:39.633Z,944.49
2018-12-08T09:48:39.617Z,944.52
2018-12-08T09:49:39.602Z,944.39
2018-12-08T09:50:39.586Z,944.44
2018-12-08T09:51:39.571Z,944.35
2018-12-08T09:52:39.556Z,944.32
2018-12-08T09:53:39.540Z,944.28
2018-12-08T09:54:39.527Z,944.33
2018-12-08T09:55:39.510Z,944.39
2018-12-08T09:56:39.495Z,944.35
2018-12-08T09:57:39.478Z,944.37
2018-12-08T09:58:39.464Z,944.39
2018-12-08T09:59:39.449Z,944.42
2018-12-08T10:00:39.434Z,944.36
2018-12-08T10:01:39.417Z,944.29
2018-12-08T10:02:39.553Z,944.29
2018-12-08T10:03:39.388Z,944.22
2018-12-08T10:04:39.372Z,944.33
2018-12-08T10:05:39.356Z,944.47
2018-12-08T10:06:39.342Z,944.38
2018-12-08T10:07:39.326Z,944.35
2018-12-08T10:08:39.311Z,944.32
2018-12-08T10:09:39.296Z,944.41
2018-12-08T10:10:39.281Z,944.36
2018-12-08T10:11:39.265Z,944.36
2018-12-08T10:12:39.249Z,944.41
2018-12-08T10:13:39.235Z,944.42
2018-12-08T10:14:39.221Z,944.38
2018-12-08T10:15:39.203Z,944.38
2018-12-08T10:16:39.188Z,944.26
2018-12-08T10:17:39.173Z,944.3
2018-12-08T10:18:39.161Z,944.32
2018-12-08T10:19:39.142Z,944.28
2018-12-08T10:20:39.126Z,944.21
2018-12-08T10:21:39.111Z,944.15
2018-12-08T10:22:39.096Z,944.15
2018-12-08T10:23:39.081Z,944.09
2018-12-08T10:24:39.064Z,944.09
2018-12-08T10:25:39.050Z,944.1
2018-12-08T10:26:39.039Z,944.08
2018-12-08T10:27:39.018Z,944.08
2018-12-08T10:28:39.003Z,944.02
2018-12-08T10:29:38.987Z,944.08
2018-12-08T10:30:38.971Z,944
2018-12-08T10:31:38.957Z,943.98
2018-12-08T10:32:38.941Z,944.02
2018-12-08T10:33:38.926Z,943.96
2018-12-08T10:34:38.910Z,943.98
2018-12-08T10:35:38.895Z,943.99
2018-12-08T10:36:38.879Z,943.84
2018-12-08T10:37:38.864Z,943.93
2018-12-08T10:38:38.848Z,943.93
2018-12-08T10:39:38.833Z,943.9
2018-12-08T10:40:38.818Z,943.83
2018-12-08T10:41:38.803Z,943.8
2018-12-08T10:42:38.787Z,943.86
2018-12-08T10:43:38.771Z,943.83
2018-12-08T10:44:38.755Z,943.84
2018-12-08T10:45:38.739Z,943.83
2018-12-08T10:46:38.727Z,944.02
2018-12-08T10:47:38.709Z,943.78
2018-12-08T10:48:38.693Z,943.84
2018-12-08T10:49:38.679Z,943.73
2018-12-08T10:50:38.663Z,943.86
2018-12-08T10:51:38.649Z,943.9
2018-12-08T10:52:38.633Z,943.85
2018-12-08T10:53:38.618Z,943.76
2018-12-08T10:54:38.606Z,943.78
2018-12-08T10:55:38.587Z,943.72
2018-12-08T10:56:38.575Z,943.69
2018-12-08T10:57:38.556Z,943.61
2018-12-08T10:58:38.542Z,943.63
2018-12-08T10:59:38.526Z,943.63
2018-12-08T11:00:38.512Z,943.64
2018-12-08T11:01:38.498Z,943.53
2018-12-08T11:02:38.481Z,943.57
2018-12-08T11:03:38.465Z,943.47
2018-12-08T11:04:38.450Z,943.58
2018-12-08T11:05:38.435Z,943.48
2018-12-08T11:06:38.420Z,943.52
2018-12-08T11:07:38.404Z,943.58
2018-12-08T11:08:38.389Z,943.47
2018-12-08T11:09:38.374Z,943.45
2018-12-08T11:10:38.358Z,943.53
2018-12-08T11:11:38.342Z,943.44
2018-12-08T11:12:38.328Z,943.43
2018-12-08T11:13:38.313Z,943.44
2018-12-08T11:14:38.296Z,943.43
2018-12-08T11:15:38.281Z,943.44
2018-12-08T11:16:38.266Z,943.4
2018-12-08T11:17:38.250Z,943.43
2018-12-08T11:18:38.236Z,943.47
2018-12-08T11:19:38.219Z,943.36
2018-12-08T11:20:38.204Z,943.3
2018-12-08T11:21:38.191Z,943.36
2018-12-08T11:22:38.173Z,943.34
2018-12-08T11:23:38.449Z,943.37
2018-12-08T11:24:38.143Z,943.38
2018-12-08T11:25:38.126Z,943.31
2018-12-08T11:26:38.111Z,943.41
2018-12-08T11:27:38.096Z,943.52
2018-12-08T11:28:38.081Z,943.45
2018-12-08T11:29:38.066Z,943.32
2018-12-08T11:30:38.050Z,943.41
2018-12-08T11:31:38.034Z,943.41
2018-12-08T11:32:38.020Z,943.39
2018-12-08T11:33:38.004Z,943.37
2018-12-08T11:34:37.990Z,943.42
2018-12-08T11:35:37.974Z,943.35
2018-12-08T11:36:37.958Z,943.36
2018-12-08T11:37:37.943Z,943.56
2018-12-08T11:38:37.928Z,943.33
2018-12-08T11:39:37.912Z,943.3
2018-12-08T11:40:37.897Z,943.27
2018-12-08T11:41:37.882Z,943.3
2018-12-08T11:42:37.867Z,943.38
2018-12-08T11:43:37.855Z,943.33
2018-12-08T11:44:37.836Z,943.3
2018-12-08T11:45:37.822Z,943.33
2018-12-08T11:46:37.805Z,943.35
2018-12-08T11:47:37.793Z,943.27
2018-12-08T11:48:37.779Z,943.29
2018-12-08T11:49:37.760Z,943.32
2018-12-08T11:50:37.745Z,943.33
2018-12-08T11:51:37.730Z,943.31
2018-12-08T11:52:37.715Z,943.25
2018-12-08T11:53:37.700Z,943.29
2018-12-08T11:54:37.692Z,943.2
2018-12-08T11:55:37.669Z,943.39
2018-12-08T11:56:37.655Z,943.22
2018-12-08T11:57:37.639Z,943.16
2018-12-08T11:58:37.624Z,943.26
2018-12-08T11:59:37.613Z,943.07
2018-12-08T12:00:37.595Z,943.09
2018-12-08T12:01:37.578Z,943.25
2018-12-08T12:02:37.571Z,943.2
2018-12-08T12:03:37.551Z,943.14
2018-12-08T12:04:37.534Z,943.33
2018-12-08T12:05:37.518Z,943.29
2018-12-08T12:06:37.502Z,943.26
2018-12-08T12:07:37.488Z,943.15
2018-12-08T12:08:37.473Z,943.14
2018-12-08T12:09:37.456Z,943.17
2018-12-08T12:10:37.442Z,943.16
2018-12-08T12:11:37.427Z,943.16
2018-12-08T12:12:37.411Z,943.05
2018-12-08T12:13:37.401Z,943.04
2018-12-08T12:14:37.381Z,943.14
2018-12-08T12:15:37.366Z,943
2018-12-08T12:16:37.349Z,943.13
2018-12-08T12:17:37.333Z,942.93
2018-12-08T12:18:37.319Z,943.07
2018-12-08T12:19:37.304Z,943.05
2018-12-08T12:20:37.293Z,943.07
2018-12-08T12:21:37.273Z,943.01
2018-12-08T12:22:37.257Z,943.11
2018-12-08T12:23:37.244Z,943.11
2018-12-08T12:24:37.228Z,943.09
2018-12-08T12:25:37.214Z,943.06
2018-12-08T12:26:37.195Z,943.12
2018-12-08T12:27:37.179Z,943.12
2018-12-08T12:28:37.165Z,943.12
2018-12-08T12:29:37.149Z,943.13
2018-12-08T12:30:37.134Z,943.16
2018-12-08T12:31:37.119Z,943.15